Time;durP1;ratioP1;P1;durP2;ratioP2;P2;SDS_P1;SDS_P2;PMS_P1;PMS_P2;Temp;Humidity;BMP_temperature;BMP_pressure;BME280_temperature;BME280_humidity;BME280_pressure;Samples;Min_cycle;Max_cycle;Signal;HPM_P1;HPM_P2
2022/11/22 00:01:02;;;;;;;173.00;92.20;;;;;;;-0.01;86.36;97733.24;87737;1299;98141;-80
2022/11/22 00:03:04;;;;;;;155.20;90.80;;;;;;;-0.02;86.40;97727.77;87874;1291;22647;-80
2022/11/22 00:05:05;;;;;;;;;;;;;;;-0.04;86.15;97729.88;87840;1309;98438;-80
2022/11/22 00:17:14;;;;;;;148.70;82.20;;;;;;;-0.41;86.09;97717.34;85367;1324;98434;-81
2022/11/22 00:19:29;;;;;;;165.50;84.40;;;;;;;-0.32;86.11;97730.56;85413;1327;22674;-83
2022/11/22 00:21:46;;;;;;;161.50;84.10;;;;;;;-0.44;85.97;97724.11;85396;1331;25513;-81
2022/11/22 00:24:01;;;;;;;157.20;86.80;;;;;;;-0.41;86.09;97730.45;85254;1323;98932;-81
2022/11/22 00:26:02;;;;;;;160.20;90.00;;;;;;;-0.44;86.00;97733.80;85433;1327;22531;-80
2022/11/22 00:28:04;;;;;;;159.90;87.30;;;;;;;-0.49;86.10;97737.02;85869;1326;22751;-77
2022/11/22 00:30:09;;;;;;;142.10;70.60;;;;;;;-0.55;86.02;97736.29;85847;1328;98297;-81
2022/11/22 00:32:25;;;;;;;166.20;85.60;;;;;;;-0.58;85.97;97738.44;85868;1342;23176;-80
2022/11/22 00:34:25;;;;;;;152.90;78.90;;;;;;;-0.61;86.12;97743.85;85481;1328;22524;-80
2022/11/22 00:36:26;;;;;;;151.00;81.30;;;;;;;-0.62;85.94;97745.77;85279;1327;99654;-81
2022/11/22 00:38:26;;;;;;;144.00;80.70;;;;;;;-0.65;86.09;97745.69;85310;1320;24299;-76
2022/11/22 00:40:27;;;;;;;139.80;79.70;;;;;;;-0.69;86.03;97746.13;85246;1317;21957;-80
2022/11/22 00:42:27;;;;;;;157.20;83.10;;;;;;;-0.76;85.99;97741.27;85099;1349;99559;-81
2022/11/22 00:44:42;;;;;;;148.90;82.70;;;;;;;-0.77;86.07;97746.30;85323;1323;24427;-76
2022/11/22 00:46:44;;;;;;;142.50;80.50;;;;;;;-0.78;86.13;97743.02;85262;1325;24911;-79
2022/11/22 00:48:44;;;;;;;153.20;77.90;;;;;;;-0.78;86.12;97747.34;85130;1343;99079;-77
2022/11/22 00:50:48;;;;;;;139.80;78.80;;;;;;;-0.78;86.06;97751.14;85510;1315;23903;-80
2022/11/22 00:52:49;;;;;;;143.30;80.20;;;;;;;-0.80;86.10;97755.68;85779;1307;25851;-79
2022/11/22 00:54:50;;;;;;;141.80;77.20;;;;;;;-0.84;86.09;97754.90;86868;1293;98669;-79
2022/11/22 00:56:52;;;;;;;135.00;77.50;;;;;;;-0.86;86.07;97759.09;87162;1295;22566;-80
2022/11/22 00:58:53;;;;;;;136.40;72.90;;;;;;;-0.88;86.13;97758.09;87125;1300;22474;-81
2022/11/22 01:00:54;;;;;;;134.10;75.50;;;;;;;-0.89;86.00;97755.88;87052;1294;98326;-79
2022/11/22 01:02:55;;;;;;;133.60;74.20;;;;;;;-0.94;85.96;97760.29;87144;1296;30492;-81
2022/11/22 01:04:56;;;;;;;131.90;73.10;;;;;;;-0.97;86.05;97762.06;87209;1296;22513;-82
2022/11/22 01:06:57;;;;;;;125.00;68.60;;;;;;;-0.98;85.98;97762.27;87060;1295;98490;-79
2022/11/22 01:08:58;;;;;;;138.40;74.60;;;;;;;-1.01;86.02;97765.11;87233;1293;22431;-79
2022/11/22 01:11:00;;;;;;;133.60;74.30;;;;;;;-1.03;86.07;97763.57;87279;1288;22755;-80
2022/11/22 01:13:03;;;;;;;124.70;71.10;;;;;;;-1.03;86.07;97766.33;86997;1288;98948;-81
2022/11/22 01:15:04;;;;;;;126.00;70.10;;;;;;;-1.05;86.03;97766.38;87045;1287;22442;-77
2022/11/22 01:17:05;;;;;;;128.00;67.80;;;;;;;-1.08;85.96;97770.23;86903;1309;98369;-80
2022/11/22 01:19:06;;;;;;;130.60;70.90;;;;;;;-1.11;86.00;97772.38;87184;1292;22666;-78
2022/11/22 01:21:08;;;;;;;129.90;66.70;;;;;;;-1.13;86.01;97778.09;86906;1295;22502;-79
2022/11/22 01:23:09;;;;;;;137.80;67.60;;;;;;;-1.15;86.09;97778.83;86947;1295;99712;-80
2022/11/22 01:25:10;;;;;;;128.10;67.80;;;;;;;-1.16;85.99;97781.77;86994;1309;22482;-81
2022/11/22 01:27:11;;;;;;;121.50;68.70;;;;;;;-1.19;86.07;97776.30;87026;1292;22423;-79
2022/11/22 01:29:12;;;;;;;127.50;69.70;;;;;;;-1.19;86.09;97778.21;87022;1286;99563;-77
2022/11/22 01:31:13;;;;;;;132.70;73.40;;;;;;;-1.18;86.17;97780.27;87166;1292;22478;-81
2022/11/22 01:43:46;;;;;;;118.90;65.60;;;;;;;-1.13;86.36;97778.95;84714;1323;22715;-78
2022/11/22 01:45:50;;;;;;;115.20;64.30;;;;;;;-1.09;86.47;97774.41;84329;1331;22577;-78
2022/11/22 01:47:51;;;;;;;111.40;63.80;;;;;;;-1.08;86.78;97771.95;84181;1329;98415;-81
2022/11/22 01:50:06;;;;;;;108.00;63.00;;;;;;;-1.06;86.65;97766.23;84266;1336;22569;-79
2022/11/22 01:52:14;;;;;;;120.50;66.80;;;;;;;-1.07;86.61;97765.36;84436;1339;22671;-81
2022/11/22 01:54:20;;;;;;;125.10;69.30;;;;;;;-1.06;86.74;97767.09;84269;1335;98385;-80
2022/11/22 01:56:22;;;;;;;123.90;69.40;;;;;;;-1.05;86.69;97759.33;84568;1332;23046;-79
2022/11/22 01:58:25;;;;;;;113.80;65.90;;;;;;;-1.05;86.40;97759.83;84414;1335;23025;-77
2022/11/22 02:00:26;;;;;;;124.40;69.40;;;;;;;-1.04;86.67;97757.58;84445;1328;98508;-77
2022/11/22 02:02:27;;;;;;;116.20;68.20;;;;;;;-1.04;86.70;97753.42;84436;1333;22698;-75
2022/11/22 02:04:31;;;;;;;123.20;68.10;;;;;;;-1.02;86.79;97758.74;84443;1335;22543;-80
2022/11/22 02:06:46;;;;;;;109.30;63.70;;;;;;;-1.03;86.82;97750.64;84386;1333;98441;-80
2022/11/22 02:08:58;;;;;;;118.90;67.90;;;;;;;-1.00;86.77;97752.66;84244;1335;213662;-78
2022/11/22 02:11:01;;;;;;;110.60;63.90;;;;;;;-0.98;86.87;97756.23;84294;1335;23972;-80
2022/11/22 02:13:02;;;;;;;106.40;63.70;;;;;;;-0.97;86.87;97756.02;84280;1341;98826;-80
2022/11/22 02:15:03;;;;;;;116.40;65.40;;;;;;;-0.95;87.08;97756.50;84371;1350;25449;-79
2022/11/22 02:17:03;;;;;;;131.90;65.50;;;;;;;-0.93;87.05;97749.41;84688;1335;22753;-79
2022/11/22 02:19:12;;;;;;;105.00;61.50;;;;;;;-0.93;87.00;97750.59;85088;1320;98366;-79
2022/11/22 02:21:13;;;;;;;128.60;66.60;;;;;;;-0.92;86.88;97746.27;86227;1318;22691;-79
2022/11/22 02:23:55;;;;;;;121.60;66.50;;;;;;;-0.91;86.84;97746.24;86499;1303;99575;-77
2022/11/22 02:26:01;;;;;;;122.90;64.90;;;;;;;-0.91;86.86;97745.73;86994;1296;23916;-76
2022/11/22 02:28:03;;;;;;;108.00;61.70;;;;;;;-0.91;86.93;97746.77;86957;1304;22837;-79
2022/11/22 02:30:05;;;;;;;107.40;61.10;;;;;;;-0.91;86.93;97737.30;86726;1313;98248;-78
2022/11/22 02:32:06;;;;;;;117.60;62.80;;;;;;;-0.90;86.93;97733.99;86971;1297;23629;-77
2022/11/22 02:34:08;;;;;;;114.30;61.70;;;;;;;-0.90;86.91;97733.64;87879;1314;22292;-79
2022/11/22 02:36:11;;;;;;;110.90;60.60;;;;;;;-0.89;86.94;97729.83;87800;1308;98502;-76
2022/11/22 02:38:28;;;;;;;114.70;63.70;;;;;;;-0.88;86.96;97725.14;87972;1315;22540;-77
2022/11/22 02:40:36;;;;;;;122.20;61.80;;;;;;;-0.87;86.89;97725.31;87924;1314;22324;-79
2022/11/22 02:42:36;;;;;;;102.40;57.00;;;;;;;-0.87;86.86;97728.23;87638;1294;98349;-79
2022/11/22 02:44:39;;;;;;;111.10;61.00;;;;;;;-0.87;86.86;97729.43;87146;1319;22550;-81
2022/11/22 02:46:49;;;;;;;104.10;56.30;;;;;;;-0.86;86.96;97730.45;86985;1314;23217;-79
2022/11/22 02:48:50;;;;;;;100.80;57.00;;;;;;;-0.89;86.92;97727.23;86623;1300;98481;-79
2022/11/22 02:50:51;;;;;;;107.80;58.90;;;;;;;-0.90;86.81;97726.91;86746;1296;22517;-79
2022/11/22 02:52:52;;;;;;;97.50;57.00;;;;;;;-0.91;86.90;97725.04;86783;1314;23657;-78
2022/11/22 02:54:53;;;;;;;117.40;63.20;;;;;;;-0.93;86.78;97722.48;86602;1300;98068;-79
2022/11/22 02:56:55;;;;;;;100.80;59.30;;;;;;;-0.94;86.78;97722.70;86833;1289;26258;-78
2022/11/22 02:58:56;;;;;;;102.10;57.80;;;;;;;-0.93;86.85;97725.61;86806;1297;22594;-79
2022/11/22 03:00:57;;;;;;;116.20;59.20;;;;;;;-0.92;86.88;97730.23;86667;1290;98233;-78
2022/11/22 03:02:58;;;;;;;109.10;61.40;;;;;;;-0.92;86.89;97724.73;86759;1287;22595;-79
2022/11/22 03:04:59;;;;;;;120.20;63.30;;;;;;;-0.93;86.84;97721.13;86901;1293;22574;-80
2022/11/22 03:07:01;;;;;;;110.70;60.70;;;;;;;-0.95;86.70;97718.08;86985;1287;98772;-81
2022/11/22 03:09:02;;;;;;;109.30;60.40;;;;;;;-0.97;86.78;97719.49;86869;1303;22520;-80
2022/11/22 03:11:03;;;;;;;102.90;58.10;;;;;;;-0.98;86.82;97716.23;87032;1302;23824;-78
2022/11/22 03:13:04;;;;;;;107.00;60.40;;;;;;;-1.00;86.90;97714.73;87039;1290;98081;-77
2022/11/22 03:15:07;;;;;;;110.20;59.90;;;;;;;-1.03;86.84;97712.88;86997;1292;22493;-79
2022/11/22 03:17:08;;;;;;;106.30;60.00;;;;;;;-1.04;86.93;97712.55;87000;1293;99683;-75
2022/11/22 03:19:10;;;;;;;108.20;60.40;;;;;;;-1.04;86.81;97712.05;86864;1300;22493;-79
2022/11/22 03:21:13;;;;;;;120.20;64.00;;;;;;;-1.04;86.96;97713.60;86815;1294;22717;-79
2022/11/22 03:23:15;;;;;;;113.30;63.10;;;;;;;-1.05;86.93;97712.60;86724;1283;98445;-79
2022/11/22 03:25:15;;;;;;;106.60;62.50;;;;;;;-1.06;86.96;97719.69;86806;1287;22459;-79
2022/11/22 03:27:16;;;;;;;97.60;57.10;;;;;;;-1.07;86.83;97722.80;87008;1287;22533;-78
2022/11/22 03:29:18;;;;;;;118.80;62.40;;;;;;;-1.11;86.72;97731.34;86802;1312;98398;-78
2022/11/22 03:31:19;;;;;;;114.80;62.40;;;;;;;-1.12;86.74;97730.69;86908;1284;23138;-79
2022/11/22 03:33:19;;;;;;;112.30;60.10;;;;;;;-1.16;86.77;97730.58;86879;1288;22709;-80
2022/11/22 03:35:21;;;;;;;;;;;;;;;-1.13;86.77;97732.42;86892;1288;98617;-79
2022/11/22 03:37:22;;;;;;;107.00;56.40;;;;;;;-1.13;86.76;97728.96;86931;1308;22457;-78
2022/11/22 03:39:23;;;;;;;106.30;61.70;;;;;;;-1.12;86.83;97726.03;86805;1293;22543;-80
2022/11/22 03:41:24;;;;;;;119.50;67.10;;;;;;;-1.12;86.87;97723.77;86890;1280;98577;-81
2022/11/22 03:43:26;;;;;;;128.20;70.20;;;;;;;-1.09;86.82;97723.38;86778;1289;22645;-79
2022/11/22 03:45:28;;;;;;;134.80;73.40;;;;;;;-1.07;87.06;97721.42;87036;1280;22512;-79
2022/11/22 03:47:29;;;;;;;144.00;77.20;;;;;;;-1.07;87.12;97720.90;86915;1288;98230;-80
2022/11/22 03:49:30;;;;;;;180.30;72.00;;;;;;;-1.07;87.01;97715.91;86951;1289;22788;-80
2022/11/22 03:51:30;;;;;;;233.00;71.00;;;;;;;-1.10;86.92;97712.02;86921;1296;22465;-81
2022/11/22 03:53:32;;;;;;;228.70;72.30;;;;;;;-1.11;87.02;97707.05;87023;1307;98171;-79
2022/11/22 03:55:33;;;;;;;301.30;69.20;;;;;;;-1.13;86.95;97708.27;87115;1296;22534;-79
2022/11/22 03:57:34;;;;;;;300.70;71.10;;;;;;;-1.14;87.02;97711.06;87478;1297;22551;-79
2022/11/22 03:59:35;;;;;;;306.60;73.90;;;;;;;-1.13;87.07;97714.50;87750;1312;121919;-75
2022/11/22 04:01:36;;;;;;;286.20;75.50;;;;;;;-1.10;87.18;97717.36;86980;1296;22499;-80
2022/11/22 04:03:37;;;;;;;204.70;71.10;;;;;;;-1.08;87.18;97717.33;86856;1289;22543;-79
2022/11/22 04:05:38;;;;;;;251.90;72.80;;;;;;;-1.05;87.24;97712.95;86854;1295;98355;-75
2022/11/22 04:07:39;;;;;;;292.50;67.60;;;;;;;-1.02;87.26;97717.18;86778;1303;22623;-81
2022/11/22 04:09:40;;;;;;;256.20;66.60;;;;;;;-0.99;87.37;97720.22;86738;1293;22482;-82
2022/11/22 04:11:41;;;;;;;356.70;67.00;;;;;;;-0.96;87.34;97717.92;86849;1286;98214;-80
2022/11/22 04:16:05;;;;;;;318.20;63.50;;;;;;;-0.92;87.43;97720.92;86876;1296;27796;-80
2022/11/22 04:18:09;;;;;;;368.70;64.10;;;;;;;-0.91;87.46;97716.94;86849;1294;98917;-79
2022/11/22 04:22:33;;;;;;;395.20;59.90;;;;;;;-0.88;87.48;97714.29;87028;1287;22515;-80
2022/11/22 04:26:55;;;;;;;339.10;55.10;;;;;;;-0.86;87.41;97711.30;86981;1290;23754;-76
2022/11/22 04:28:56;;;;;;;383.60;60.10;;;;;;;-0.83;87.43;97712.27;86844;1296;22475;-80
2022/11/22 04:33:17;;;;;;;311.40;59.10;;;;;;;-0.80;87.34;97706.70;86873;1294;22738;-79
2022/11/22 04:35:18;;;;;;;310.40;58.90;;;;;;;-0.83;87.47;97701.25;86687;1289;98506;-79
2022/11/22 04:37:19;;;;;;;288.00;60.10;;;;;;;-0.82;87.50;97701.58;86849;1289;22454;-79
2022/11/22 04:39:21;;;;;;;299.90;57.70;;;;;;;-0.82;87.56;97703.98;86735;1294;22602;-79
2022/11/22 04:41:22;;;;;;;262.80;57.50;;;;;;;-0.81;87.63;97707.58;86697;1292;98386;-80
2022/11/22 04:45:46;;;;;;;230.50;52.40;;;;;;;-0.79;87.57;97707.35;86840;1292;22538;-80
2022/11/22 04:47:59;;;;;;;121.30;51.20;;;;;;;-0.79;87.45;97706.85;86677;1296;98700;-80
2022/11/22 04:50:03;;;;;;;89.50;46.70;;;;;;;-0.80;87.54;97701.85;86684;1286;22684;-79
2022/11/22 04:54:38;;;;;;;84.70;45.40;;;;;;;-0.81;87.57;97702.23;86572;1294;99369;-79
2022/11/22 04:56:39;;;;;;;82.40;46.00;;;;;;;-0.82;87.49;97703.80;86915;1287;22749;-79
2022/11/22 04:58:40;;;;;;;84.70;44.90;;;;;;;-0.82;87.66;97708.12;86930;1290;22510;-79
2022/11/22 05:00:41;;;;;;;92.10;46.90;;;;;;;-0.82;87.60;97709.67;86682;1286;98339;-78
2022/11/22 05:02:42;;;;;;;77.00;43.50;;;;;;;-0.82;87.63;97708.48;86782;1287;22513;-76
2022/11/22 05:04:43;;;;;;;92.50;47.20;;;;;;;-0.85;87.50;97711.64;86786;1294;22692;-80
2022/11/22 05:06:44;;;;;;;85.60;44.40;;;;;;;-0.84;87.47;97707.81;86861;1280;98391;-79
2022/11/22 05:08:45;;;;;;;74.30;43.30;;;;;;;-0.85;87.61;97705.77;86889;1309;22450;-80
2022/11/22 05:10:58;;;;;;;87.20;43.60;;;;;;;-0.87;87.56;97709.08;86696;1303;23355;-79
2022/11/22 05:12:59;;;;;;;75.40;41.30;;;;;;;-0.88;87.47;97708.25;86782;1286;98191;-80
2022/11/22 05:15:03;;;;;;;80.80;41.80;;;;;;;-0.91;87.44;97708.65;86840;1287;22482;-80
2022/11/22 05:17:07;;;;;;;80.70;42.90;;;;;;;-0.92;87.46;97708.33;86922;1286;22546;-80
2022/11/22 05:19:08;;;;;;;72.10;39.90;;;;;;;-0.93;87.47;97710.27;86733;1293;98584;-79
2022/11/22 05:21:12;;;;;;;78.50;38.90;;;;;;;-0.94;87.51;97714.94;86823;1280;22804;-81
2022/11/22 05:25:33;;;;;;;69.40;38.70;;;;;;;-0.97;87.48;97712.76;86787;1286;24229;-80
2022/11/22 05:27:34;;;;;;;73.20;39.10;;;;;;;-0.97;87.50;97711.57;86910;1286;23038;-79
2022/11/22 05:29:35;;;;;;;66.80;37.60;;;;;;;-0.98;87.46;97712.95;86671;1290;98517;-79
2022/11/22 05:31:38;;;;;;;67.20;38.70;;;;;;;-0.98;87.55;97708.98;86935;1286;22530;-79
2022/11/22 05:33:41;;;;;;;68.30;39.20;;;;;;;-0.98;87.54;97705.20;86766;1296;22527;-79
2022/11/22 05:35:42;;;;;;;64.80;37.90;;;;;;;-1.00;87.54;97710.59;86754;1295;98088;-79
2022/11/22 05:37:43;;;;;;;70.90;39.00;;;;;;;-1.01;87.55;97705.27;86944;1292;22520;-79
2022/11/22 05:39:44;;;;;;;68.40;37.10;;;;;;;-1.03;87.53;97704.61;86987;1294;23238;-80
2022/11/22 05:41:54;;;;;;;64.60;38.60;;;;;;;-1.09;87.54;97700.63;86861;1286;98800;-80
2022/11/22 05:43:56;;;;;;;70.50;38.00;;;;;;;-1.02;87.60;97705.98;86729;1289;22444;-81
2022/11/22 05:46:12;;;;;;;67.00;38.30;;;;;;;-1.03;87.53;97705.13;86736;1287;22807;-79
2022/11/22 05:48:13;;;;;;;59.10;36.20;;;;;;;-1.04;87.53;97706.52;86740;1293;98262;-80
2022/11/22 05:50:14;;;;;;;62.60;37.50;;;;;;;-1.04;87.45;97707.23;86736;1311;22675;-78
2022/11/22 05:52:15;;;;;;;62.80;37.80;;;;;;;-1.05;87.53;97706.04;86941;1287;22617;-79
2022/11/22 05:54:16;;;;;;;57.70;34.30;;;;;;;-1.05;87.51;97714.99;86892;1296;98742;-76
2022/11/22 05:56:22;;;;;;;60.20;37.80;;;;;;;-1.05;87.55;97713.63;87146;1295;22778;-77
2022/11/22 05:58:23;;;;;;;61.10;35.80;;;;;;;-1.06;87.47;97712.45;87137;1291;25214;-79
2022/11/22 06:00:26;;;;;;;64.40;36.40;;;;;;;-1.10;87.42;97709.43;86770;1287;98687;-80
2022/11/22 06:02:30;;;;;;;74.30;41.50;;;;;;;-1.06;87.45;97712.27;86931;1293;22484;-79
2022/11/22 06:04:31;;;;;;;80.80;44.00;;;;;;;-1.07;87.44;97707.81;86826;1293;23514;-80
2022/11/22 06:06:32;;;;;;;113.20;59.30;;;;;;;-1.09;87.51;97704.41;87067;1294;98103;-82
2022/11/22 06:08:36;;;;;;;123.30;66.00;;;;;;;-1.09;87.51;97710.45;87363;1293;22521;-80
2022/11/22 06:10:38;;;;;;;135.80;70.60;;;;;;;-1.10;87.50;97710.46;86861;1294;22504;-78
2022/11/22 06:12:38;;;;;;;120.30;64.60;;;;;;;-1.09;87.47;97717.68;86792;1293;98258;-78
2022/11/22 06:14:39;;;;;;;106.20;59.40;;;;;;;-1.09;87.49;97716.47;86851;1284;22502;-77
2022/11/22 06:16:40;;;;;;;118.80;59.80;;;;;;;-1.07;87.53;97715.05;86717;1284;23067;-78
2022/11/22 06:18:42;;;;;;;110.20;57.90;;;;;;;-1.07;87.54;97716.25;86768;1278;98400;-78
2022/11/22 06:20:42;;;;;;;;;;;;;;;-1.06;87.54;97718.13;86729;1287;22490;-78
2022/11/22 06:22:43;;;;;;;117.20;56.60;;;;;;;-1.08;87.50;97723.52;86979;1293;25264;-77
2022/11/22 06:24:44;;;;;;;100.20;54.00;;;;;;;-1.08;87.57;97723.69;86811;1300;98918;-76
2022/11/22 06:26:45;;;;;;;100.30;54.40;;;;;;;-1.08;87.40;97727.48;86614;1287;24335;-77
2022/11/22 06:28:48;;;;;;;92.10;52.60;;;;;;;-1.11;87.34;97727.02;86700;1280;22544;-77
2022/11/22 06:30:49;;;;;;;95.40;51.10;;;;;;;-1.11;87.37;97726.53;86667;1286;99275;-78
2022/11/22 06:32:50;;;;;;;;;;;;;;;-1.11;87.43;97728.92;86773;1288;22585;-77
2022/11/22 06:34:51;;;;;;;96.90;51.60;;;;;;;-1.10;87.36;97732.70;86883;1289;23204;-76
2022/11/22 06:36:53;;;;;;;97.30;52.30;;;;;;;-1.10;87.38;97732.70;86614;1290;98426;-77
2022/11/22 06:38:55;;;;;;;91.80;51.50;;;;;;;-1.09;87.45;97736.65;86942;1294;22494;-76
2022/11/22 06:41:01;;;;;;;91.50;51.20;;;;;;;-1.09;87.37;97735.96;86997;1286;24215;-78
2022/11/22 06:43:02;;;;;;;89.80;48.40;;;;;;;-1.10;87.25;97740.65;87018;1289;98638;-78
2022/11/22 06:45:03;;;;;;;92.00;49.80;;;;;;;-1.09;87.40;97739.73;86933;1284;22770;-76
2022/11/22 06:47:04;;;;;;;;;;;;;;;-1.06;87.47;97741.92;86734;1297;22448;-77
2022/11/22 06:49:05;;;;;;;83.50;46.60;;;;;;;-1.04;87.47;97743.61;86775;1284;84055;-78
2022/11/22 06:51:09;;;;;;;75.00;44.30;;;;;;;-1.02;87.51;97739.08;86655;1295;23590;-76
2022/11/22 06:53:10;;;;;;;77.70;44.30;;;;;;;-0.98;87.57;97738.83;86876;1286;22485;-80
2022/11/22 06:55:11;;;;;;;74.80;44.30;;;;;;;-0.99;87.55;97732.29;86816;1294;22495;-75
2022/11/22 06:57:13;;;;;;;86.40;48.10;;;;;;;-0.91;87.63;97735.40;86926;1294;22577;-78
2022/11/22 06:59:14;;;;;;;94.50;52.70;;;;;;;-0.88;87.49;97733.42;86606;1282;99126;-77
2022/11/22 07:01:27;;;;;;;94.00;53.70;;;;;;;-0.84;87.72;97735.77;86761;1293;22709;-78
2022/11/22 07:03:29;;;;;;;87.40;49.90;;;;;;;-0.81;87.60;97733.45;86793;1285;24970;-77
2022/11/22 07:05:30;;;;;;;77.20;46.90;;;;;;;-0.79;87.69;97735.47;86937;1293;98352;-77
2022/11/22 07:07:31;;;;;;;71.00;42.80;;;;;;;-0.77;87.65;97735.79;86776;1311;22496;-78
2022/11/22 07:09:32;;;;;;;80.70;44.60;;;;;;;-0.76;87.66;97739.72;86955;1294;25209;-77
2022/11/22 07:11:36;;;;;;;71.90;43.10;;;;;;;-0.74;87.58;97741.40;86685;1283;98384;-76
2022/11/22 07:13:37;;;;;;;70.80;42.80;;;;;;;-0.71;87.61;97744.95;86804;1293;25751;-76
2022/11/22 07:15:40;;;;;;;76.40;43.10;;;;;;;-0.67;87.61;97745.20;86696;1290;22504;-78
2022/11/22 07:17:41;;;;;;;72.90;43.00;;;;;;;-0.61;87.67;97749.05;86828;1288;98129;-79
2022/11/22 07:19:42;;;;;;;73.30;43.20;;;;;;;-0.58;87.67;97753.09;86958;1294;22551;-78
2022/11/22 07:21:42;;;;;;;74.10;43.40;;;;;;;-0.54;87.70;97758.52;86789;1284;22506;-77
2022/11/22 07:23:46;;;;;;;69.70;43.50;;;;;;;-0.52;87.76;97759.34;86777;1294;98764;-78
2022/11/22 07:25:47;;;;;;;73.90;41.10;;;;;;;-0.44;87.75;97767.11;86874;1286;24729;-77
2022/11/22 07:27:51;;;;;;;71.90;43.30;;;;;;;-0.40;87.74;97769.42;86916;1287;22553;-78
2022/11/22 07:29:52;;;;;;;71.10;44.00;;;;;;;-0.33;87.96;97770.98;87028;1287;98199;-76
2022/11/22 07:31:53;;;;;;;68.80;41.40;;;;;;;-0.28;87.79;97776.56;87103;1294;25579;-75
2022/11/22 07:33:56;;;;;;;64.50;40.10;;;;;;;-0.23;87.73;97771.27;87209;1287;22554;-75
2022/11/22 07:36:12;;;;;;;75.10;42.30;;;;;;;-0.18;87.80;97768.20;87011;1281;99480;-77
2022/11/22 07:38:13;;;;;;;71.70;42.30;;;;;;;-0.16;87.87;97763.16;86974;1289;22488;-78
2022/11/22 07:40:14;;;;;;;73.60;42.40;;;;;;;-0.08;87.78;97772.63;86883;1288;22515;-77
2022/11/22 07:42:15;;;;;;;;;;;;;;;-0.04;87.84;97770.45;86982;1293;98418;-79
2022/11/22 07:44:16;;;;;;;71.70;42.50;;;;;;;-0.01;87.80;97768.48;87195;1286;24035;-78
2022/11/22 07:46:17;;;;;;;75.40;44.60;;;;;;;0.04;87.85;97766.80;86931;1311;22633;-77
2022/11/22 07:48:18;;;;;;;76.10;44.70;;;;;;;0.07;87.75;97759.29;87055;1293;99950;-77
2022/11/22 07:50:19;;;;;;;72.10;43.60;;;;;;;0.12;87.87;97756.41;87099;1287;22840;-78
2022/11/22 07:52:19;;;;;;;79.80;44.10;;;;;;;0.17;87.81;97748.16;87032;1287;23239;-77
2022/11/22 07:54:21;;;;;;;80.10;48.40;;;;;;;0.21;87.78;97741.31;86854;1294;99227;-80
2022/11/22 07:56:22;;;;;;;73.60;45.20;;;;;;;0.25;87.99;97737.92;87118;1285;23636;-78
2022/11/22 07:58:23;;;;;;;;;;;;;;;0.31;88.06;97740.38;86888;1285;22593;-77
2022/11/22 08:00:25;;;;;;;67.50;41.20;;;;;;;0.35;87.83;97748.20;86845;1295;84010;-80
2022/11/22 08:02:26;;;;;;;70.60;41.80;;;;;;;0.39;87.83;97751.91;86870;1281;22498;-78
2022/11/22 08:04:27;;;;;;;79.70;44.20;;;;;;;0.42;87.81;97755.09;86895;1292;22545;-77
2022/11/22 08:06:29;;;;;;;77.60;44.20;;;;;;;0.47;87.67;97759.11;86936;1285;97899;-78
2022/11/22 08:08:31;;;;;;;76.40;44.20;;;;;;;0.51;87.92;97750.20;86976;1295;22588;-79
2022/11/22 08:10:31;;;;;;;75.70;43.60;;;;;;;0.56;87.70;97747.98;86897;1295;25171;-78
2022/11/22 08:12:32;;;;;;;79.60;45.40;;;;;;;0.61;87.84;97750.95;86821;1296;98287;-78
2022/11/22 08:14:33;;;;;;;71.50;42.50;;;;;;;0.66;87.83;97757.02;87034;1287;22538;-78
2022/11/22 08:16:34;;;;;;;69.40;42.00;;;;;;;0.72;87.81;97762.92;87077;1297;22491;-78
2022/11/22 08:18:36;;;;;;;73.60;43.00;;;;;;;0.74;87.79;97761.13;87095;1286;98150;-79
2022/11/22 08:20:37;;;;;;;67.60;41.90;;;;;;;0.81;87.65;97761.79;87397;1287;23972;-78
2022/11/22 08:22:40;;;;;;;65.60;40.30;;;;;;;0.87;87.61;97756.64;87475;1286;23964;-78
2022/11/22 08:24:41;;;;;;;69.20;39.10;;;;;;;0.89;87.87;97752.58;87219;1280;98141;-78
2022/11/22 08:26:42;;;;;;;66.50;39.90;;;;;;;0.94;87.85;97756.41;87399;1292;22470;-79
2022/11/22 08:28:44;;;;;;;71.10;40.50;;;;;;;0.99;87.93;97757.30;87088;1279;22679;-77
2022/11/22 08:30:45;;;;;;;66.10;39.60;;;;;;;1.12;87.87;97758.46;87155;1291;98756;-78
2022/11/22 08:32:46;;;;;;;64.00;38.80;;;;;;;1.29;87.92;97767.67;86935;1287;25587;-80
2022/11/22 08:34:47;;;;;;;63.90;38.40;;;;;;;1.44;87.90;97767.05;87195;1295;22598;-80
2022/11/22 08:36:48;;;;;;;70.80;38.40;;;;;;;1.56;87.82;97771.86;87481;1294;98014;-77
2022/11/22 08:38:49;;;;;;;78.90;41.00;;;;;;;1.68;87.84;97779.27;87661;1288;22422;-80
2022/11/22 08:40:50;;;;;;;62.80;37.00;;;;;;;1.72;87.55;97783.99;87347;1288;23349;-75
2022/11/22 08:42:55;;;;;;;67.60;38.70;;;;;;;1.70;87.37;97785.77;87601;1301;97887;-76
2022/11/22 08:44:56;;;;;;;68.40;39.50;;;;;;;1.68;87.34;97787.92;87971;1287;23353;-80
2022/11/22 08:46:57;;;;;;;66.30;37.70;;;;;;;1.70;87.55;97788.57;87244;1295;22613;-79
2022/11/22 08:48:58;;;;;;;67.40;38.00;;;;;;;1.75;87.34;97786.34;87114;1285;98432;-80
2022/11/22 08:51:01;;;;;;;63.50;36.80;;;;;;;1.76;87.32;97782.80;86991;1295;22495;-79
2022/11/22 08:53:02;;;;;;;62.40;36.00;;;;;;;1.82;87.54;97780.02;86950;1284;22546;-79
2022/11/22 08:55:03;;;;;;;64.20;35.80;;;;;;;1.86;87.39;97781.11;86866;1287;98022;-78
2022/11/22 08:57:05;;;;;;;61.10;37.20;;;;;;;1.93;87.15;97783.00;87241;1295;25283;-79
2022/11/22 08:59:07;;;;;;;65.40;37.50;;;;;;;1.98;87.16;97783.52;87057;1292;26111;-79
2022/11/22 09:01:20;;;;;;;61.00;36.20;;;;;;;2.02;87.44;97787.55;87109;1283;98083;-82
2022/11/22 09:03:23;;;;;;;58.60;36.80;;;;;;;1.99;87.14;97777.94;86877;1301;22570;-76
2022/11/22 09:05:26;;;;;;;69.50;38.80;;;;;;;2.09;86.93;97791.46;87185;1285;98247;-81
2022/11/22 09:07:30;;;;;;;67.50;40.40;;;;;;;2.04;86.68;97780.20;86819;1288;22477;-77
2022/11/22 09:09:32;;;;;;;67.80;40.70;;;;;;;2.05;86.62;97782.05;87216;1287;22804;-79
2022/11/22 09:11:33;;;;;;;67.70;38.20;;;;;;;2.03;86.88;97776.95;87574;1284;99188;-77
2022/11/22 09:13:34;;;;;;;63.30;38.50;;;;;;;2.03;86.87;97775.91;86961;1287;22528;-78
2022/11/22 09:15:35;;;;;;;;;;;;;;;1.97;86.59;97773.16;87059;1293;22568;-76
2022/11/22 09:17:36;;;;;;;70.20;38.30;;;;;;;1.90;86.55;97769.38;86731;1287;84236;-77
2022/11/22 09:19:37;;;;;;;67.50;38.20;;;;;;;1.84;86.69;97769.42;86868;1284;22890;-77
2022/11/22 09:21:38;;;;;;;65.40;37.90;;;;;;;1.83;86.66;97767.35;86854;1287;24469;-76
2022/11/22 09:23:39;;;;;;;62.20;39.40;;;;;;;1.84;86.72;97768.55;86665;1289;98109;-78
2022/11/22 09:25:40;;;;;;;85.40;41.80;;;;;;;1.82;86.65;97769.64;86913;1285;22511;-78
2022/11/22 09:27:41;;;;;;;72.90;42.80;;;;;;;1.78;86.53;97770.81;86635;1290;22501;-79
2022/11/22 09:29:42;;;;;;;67.30;40.50;;;;;;;1.73;86.56;97776.52;87086;1294;98280;-80
2022/11/22 09:31:43;;;;;;;67.80;40.00;;;;;;;1.69;86.55;97779.92;87055;1285;22269;-78
2022/11/22 09:33:46;;;;;;;69.40;40.00;;;;;;;1.66;86.47;97778.80;86997;1284;22758;-76
2022/11/22 09:35:47;;;;;;;69.70;40.40;;;;;;;1.65;86.63;97781.44;86961;1309;99660;-78
2022/11/22 09:37:47;;;;;;;63.20;38.80;;;;;;;1.66;86.70;97784.34;87302;1287;24303;-78
2022/11/22 09:39:49;;;;;;;65.50;38.90;;;;;;;1.66;86.64;97780.55;87400;1301;25860;-77
2022/11/22 09:42:04;;;;;;;;;;;;;;;1.64;86.74;97779.59;87346;1301;98481;-78
2022/11/22 09:44:56;;;;;;;73.40;39.40;;;;;;;1.62;86.54;97779.65;87233;1289;23256;-77
2022/11/22 09:47:10;;;;;;;64.70;39.60;;;;;;;1.78;86.85;97769.10;87205;1295;22503;-77
2022/11/22 09:50:01;;;;;;;75.00;42.20;;;;;;;2.03;86.59;97771.75;87279;1297;97807;-77
2022/11/22 09:52:12;;;;;;;71.00;42.40;;;;;;;2.31;86.82;97771.30;86260;1307;24266;-77
2022/11/22 09:54:20;;;;;;;85.40;43.60;;;;;;;2.39;86.50;97765.32;86162;1297;99857;-78
2022/11/22 09:56:24;;;;;;;77.40;43.00;;;;;;;2.46;86.31;97761.95;85964;1292;22515;-78
2022/11/22 09:58:38;;;;;;;75.90;43.40;;;;;;;2.55;86.12;97762.52;86193;1293;22513;-78
2022/11/22 10:00:41;;;;;;;76.60;42.00;;;;;;;2.69;86.22;97754.02;86091;1297;98007;-79
2022/11/22 10:02:55;;;;;;;73.00;40.50;;;;;;;2.83;86.40;97747.11;86253;1297;23805;-79